sensor_id;sensor_type;location;lat;lon;timestamp;temperature;humidity
22065;DHT22;11197;53.110;8.468;2022-07-23T00:00:05;16.60;99.90
22065;DHT22;11197;53.110;8.468;2022-07-23T00:02:31;16.60;99.90
22065;DHT22;11197;53.110;8.468;2022-07-23T00:04:57;16.50;99.90
22065;DHT22;11197;53.110;8.468;2022-07-23T00:07:23;16.50;99.90
22065;DHT22;11197;53.110;8.468;2022-07-23T00:09:49;16.50;99.90
22065;DHT22;11197;53.110;8.468;2022-07-23T00:12:15;16.50;99.90
22065;DHT22;11197;53.110;8.468;2022-07-23T00:14:40;16.50;99.90
22065;DHT22;11197;53.110;8.468;2022-07-23T00:17:06;16.50;99.90
22065;DHT22;11197;53.110;8.468;2022-07-23T00:19:32;16.50;99.90
22065;DHT22;11197;53.110;8.468;2022-07-23T00:21:59;16.40;99.90
22065;DHT22;11197;53.110;8.468;2022-07-23T00:24:24;16.40;99.90
22065;DHT22;11197;53.110;8.468;2022-07-23T00:26:50;16.50;99.90
22065;DHT22;11197;53.110;8.468;2022-07-23T00:29:16;16.50;99.90
22065;DHT22;11197;53.110;8.468;2022-07-23T00:31:42;16.40;99.90
22065;DHT22;11197;53.110;8.468;2022-07-23T00:34:08;16.40;99.90
22065;DHT22;11197;53.110;8.468;2022-07-23T00:36:34;16.40;99.90
22065;DHT22;11197;53.110;8.468;2022-07-23T00:39:00;16.40;99.90
22065;DHT22;11197;53.110;8.468;2022-07-23T00:41:25;16.40;99.90
22065;DHT22;11197;53.110;8.468;2022-07-23T00:43:51;16.40;99.90
22065;DHT22;11197;53.110;8.468;2022-07-23T00:46:21;16.40;99.90
22065;DHT22;11197;53.110;8.468;2022-07-23T00:48:48;16.40;99.90
22065;DHT22;11197;53.110;8.468;2022-07-23T00:51:17;16.40;99.90
22065;DHT22;11197;53.110;8.468;2022-07-23T00:53:44;16.40;99.90
22065;DHT22;11197;53.110;8.468;2022-07-23T00:56:10;16.30;99.90
22065;DHT22;11197;53.110;8.468;2022-07-23T00:58:36;16.30;99.90
22065;DHT22;11197;53.110;8.468;2022-07-23T01:01:05;16.40;99.90
22065;DHT22;11197;53.110;8.468;2022-07-23T01:03:31;16.30;99.90
22065;DHT22;11197;53.110;8.468;2022-07-23T01:05:57;16.30;99.90
22065;DHT22;11197;53.110;8.468;2022-07-23T01:08:24;16.30;99.90
22065;DHT22;11197;53.110;8.468;2022-07-23T01:10:50;16.30;99.90
22065;DHT22;11197;53.110;8.468;2022-07-23T01:13:17;16.30;99.90
22065;DHT22;11197;53.110;8.468;2022-07-23T01:15:43;16.30;99.90
22065;DHT22;11197;53.110;8.468;2022-07-23T01:18:09;16.30;99.90
22065;DHT22;11197;53.110;8.468;2022-07-23T01:20:36;16.30;99.90
22065;DHT22;11197;53.110;8.468;2022-07-23T01:23:02;16.30;99.90
22065;DHT22;11197;53.110;8.468;2022-07-23T01:25:29;16.30;99.90
22065;DHT22;11197;53.110;8.468;2022-07-23T01:28:03;16.30;99.90
22065;DHT22;11197;53.110;8.468;2022-07-23T01:30:29;16.30;99.90
22065;DHT22;11197;53.110;8.468;2022-07-23T01:32:57;16.30;99.90
22065;DHT22;11197;53.110;8.468;2022-07-23T01:35:25;16.30;99.90
22065;DHT22;11197;53.110;8.468;2022-07-23T01:37:55;16.20;99.90
22065;DHT22;11197;53.110;8.468;2022-07-23T01:40:21;16.20;99.90
22065;DHT22;11197;53.110;8.468;2022-07-23T01:42:47;16.20;99.90
22065;DHT22;11197;53.110;8.468;2022-07-23T01:45:14;16.20;99.90
22065;DHT22;11197;53.110;8.468;2022-07-23T01:47:45;16.20;99.90
22065;DHT22;11197;53.110;8.468;2022-07-23T01:50:11;16.20;99.90
22065;DHT22;11197;53.110;8.468;2022-07-23T01:53:03;16.20;99.90
22065;DHT22;11197;53.110;8.468;2022-07-23T01:55:29;16.20;99.90
22065;DHT22;11197;53.110;8.468;2022-07-23T01:57:55;16.20;99.90
22065;DHT22;11197;53.110;8.468;2022-07-23T02:00:26;16.20;99.90
22065;DHT22;11197;53.110;8.468;2022-07-23T02:02:52;16.20;99.90
22065;DHT22;11197;53.110;8.468;2022-07-23T02:05:18;16.20;99.90
22065;DHT22;11197;53.110;8.468;2022-07-23T02:07:45;16.10;99.90
22065;DHT22;11197;53.110;8.468;2022-07-23T02:10:11;16.10;99.90
22065;DHT22;11197;53.110;8.468;2022-07-23T02:12:37;16.10;99.90
22065;DHT22;11197;53.110;8.468;2022-07-23T02:15:03;16.10;99.90
22065;DHT22;11197;53.110;8.468;2022-07-23T02:17:29;16.10;99.90
22065;DHT22;11197;53.110;8.468;2022-07-23T02:19:55;16.10;99.90
22065;DHT22;11197;53.110;8.468;2022-07-23T02:22:21;16.10;99.90
22065;DHT22;11197;53.110;8.468;2022-07-23T02:24:48;16.10;99.90
22065;DHT22;11197;53.110;8.468;2022-07-23T02:27:14;16.10;99.90
22065;DHT22;11197;53.110;8.468;2022-07-23T02:29:40;16.10;99.90
22065;DHT22;11197;53.110;8.468;2022-07-23T02:32:06;16.10;99.90
22065;DHT22;11197;53.110;8.468;2022-07-23T02:34:32;16.10;99.90
22065;DHT22;11197;53.110;8.468;2022-07-23T02:36:58;16.10;99.90
22065;DHT22;11197;53.110;8.468;2022-07-23T02:39:26;16.10;99.90
22065;DHT22;11197;53.110;8.468;2022-07-23T02:41:52;16.00;99.90
22065;DHT22;11197;53.110;8.468;2022-07-23T02:44:18;16.00;99.90
22065;DHT22;11197;53.110;8.468;2022-07-23T02:46:48;16.00;99.90
22065;DHT22;11197;53.110;8.468;2022-07-23T02:49:14;16.00;99.90
22065;DHT22;11197;53.110;8.468;2022-07-23T02:51:40;16.00;99.90
22065;DHT22;11197;53.110;8.468;2022-07-23T02:54:10;16.00;99.90
22065;DHT22;11197;53.110;8.468;2022-07-23T02:56:36;16.00;99.90
22065;DHT22;11197;53.110;8.468;2022-07-23T02:59:02;15.90;99.90
22065;DHT22;11197;53.110;8.468;2022-07-23T03:01:28;16.00;99.90
22065;DHT22;11197;53.110;8.468;2022-07-23T03:03:54;15.90;99.90
22065;DHT22;11197;53.110;8.468;2022-07-23T03:06:21;15.90;99.90
22065;DHT22;11197;53.110;8.468;2022-07-23T03:08:51;15.90;99.90
22065;DHT22;11197;53.110;8.468;2022-07-23T03:11:17;15.90;99.90
22065;DHT22;11197;53.110;8.468;2022-07-23T03:13:43;15.90;99.90
22065;DHT22;11197;53.110;8.468;2022-07-23T03:16:09;15.90;99.90
22065;DHT22;11197;53.110;8.468;2022-07-23T03:18:36;15.90;99.90
22065;DHT22;11197;53.110;8.468;2022-07-23T03:21:04;15.90;99.90
22065;DHT22;11197;53.110;8.468;2022-07-23T03:23:30;15.90;99.90
22065;DHT22;11197;53.110;8.468;2022-07-23T03:25:56;15.90;99.90
22065;DHT22;11197;53.110;8.468;2022-07-23T03:28:23;15.90;99.90
22065;DHT22;11197;53.110;8.468;2022-07-23T03:30:48;15.80;99.90
22065;DHT22;11197;53.110;8.468;2022-07-23T03:33:16;15.80;99.90
22065;DHT22;11197;53.110;8.468;2022-07-23T03:35:43;15.80;99.90
22065;DHT22;11197;53.110;8.468;2022-07-23T03:38:25;15.80;99.90
22065;DHT22;11197;53.110;8.468;2022-07-23T03:40:51;15.80;99.90
22065;DHT22;11197;53.110;8.468;2022-07-23T03:43:17;15.80;99.90
22065;DHT22;11197;53.110;8.468;2022-07-23T03:45:44;15.70;99.90
22065;DHT22;11197;53.110;8.468;2022-07-23T03:48:10;15.70;99.90
22065;DHT22;11197;53.110;8.468;2022-07-23T03:50:36;15.70;99.90
22065;DHT22;11197;53.110;8.468;2022-07-23T03:53:03;15.70;99.90
22065;DHT22;11197;53.110;8.468;2022-07-23T03:55:31;15.70;99.90
22065;DHT22;11197;53.110;8.468;2022-07-23T03:57:57;15.60;99.90
22065;DHT22;11197;53.110;8.468;2022-07-23T04:00:23;15.60;99.90
22065;DHT22;11197;53.110;8.468;2022-07-23T04:02:50;15.60;99.90
22065;DHT22;11197;53.110;8.468;2022-07-23T04:05:17;15.60;99.90
22065;DHT22;11197;53.110;8.468;2022-07-23T04:07:46;15.60;99.90
22065;DHT22;11197;53.110;8.468;2022-07-23T04:10:12;15.60;99.90
22065;DHT22;11197;53.110;8.468;2022-07-23T04:12:38;15.50;99.90
22065;DHT22;11197;53.110;8.468;2022-07-23T04:15:07;15.60;99.90
22065;DHT22;11197;53.110;8.468;2022-07-23T04:17:33;15.50;99.90
22065;DHT22;11197;53.110;8.468;2022-07-23T04:19:59;15.50;99.90
22065;DHT22;11197;53.110;8.468;2022-07-23T04:22:30;15.50;99.90
22065;DHT22;11197;53.110;8.468;2022-07-23T04:24:56;15.50;99.90
22065;DHT22;11197;53.110;8.468;2022-07-23T04:27:22;15.50;99.90
22065;DHT22;11197;53.110;8.468;2022-07-23T04:29:48;15.50;99.90
22065;DHT22;11197;53.110;8.468;2022-07-23T04:32:14;15.40;99.90
22065;DHT22;11197;53.110;8.468;2022-07-23T04:34:40;15.50;99.90
22065;DHT22;11197;53.110;8.468;2022-07-23T04:37:07;15.40;99.90
22065;DHT22;11197;53.110;8.468;2022-07-23T04:39:32;15.40;99.90
22065;DHT22;11197;53.110;8.468;2022-07-23T04:41:58;15.40;99.90
22065;DHT22;11197;53.110;8.468;2022-07-23T04:44:24;15.40;99.90
22065;DHT22;11197;53.110;8.468;2022-07-23T04:46:51;15.40;99.90
22065;DHT22;11197;53.110;8.468;2022-07-23T04:49:17;15.30;99.90
22065;DHT22;11197;53.110;8.468;2022-07-23T04:51:43;15.30;99.90
22065;DHT22;11197;53.110;8.468;2022-07-23T04:54:09;15.30;99.90
22065;DHT22;11197;53.110;8.468;2022-07-23T04:56:35;15.30;99.90
22065;DHT22;11197;53.110;8.468;2022-07-23T04:59:01;15.30;99.90
22065;DHT22;11197;53.110;8.468;2022-07-23T05:01:27;15.30;99.90
22065;DHT22;11197;53.110;8.468;2022-07-23T05:03:53;15.30;99.90
22065;DHT22;11197;53.110;8.468;2022-07-23T05:06:19;15.30;99.90
22065;DHT22;11197;53.110;8.468;2022-07-23T05:08:47;15.30;99.90
22065;DHT22;11197;53.110;8.468;2022-07-23T05:11:13;15.30;99.90
22065;DHT22;11197;53.110;8.468;2022-07-23T05:13:39;15.30;99.90
22065;DHT22;11197;53.110;8.468;2022-07-23T05:16:07;15.30;99.90
22065;DHT22;11197;53.110;8.468;2022-07-23T05:18:34;15.30;99.90
22065;DHT22;11197;53.110;8.468;2022-07-23T05:21:00;15.30;99.90
22065;DHT22;11197;53.110;8.468;2022-07-23T05:23:27;15.30;99.90
22065;DHT22;11197;53.110;8.468;2022-07-23T05:25:53;15.30;99.90
22065;DHT22;11197;53.110;8.468;2022-07-23T05:28:19;15.40;99.90
22065;DHT22;11197;53.110;8.468;2022-07-23T05:30:45;15.40;99.90
22065;DHT22;11197;53.110;8.468;2022-07-23T05:33:13;15.40;99.90
22065;DHT22;11197;53.110;8.468;2022-07-23T05:35:40;15.40;99.90
22065;DHT22;11197;53.110;8.468;2022-07-23T05:38:32;15.50;99.90
22065;DHT22;11197;53.110;8.468;2022-07-23T05:40:59;15.50;99.90
22065;DHT22;11197;53.110;8.468;2022-07-23T05:43:26;15.60;99.90
22065;DHT22;11197;53.110;8.468;2022-07-23T05:45:52;15.60;99.90
22065;DHT22;11197;53.110;8.468;2022-07-23T05:48:19;15.60;99.90
22065;DHT22;11197;53.110;8.468;2022-07-23T05:50:57;15.70;99.90
22065;DHT22;11197;53.110;8.468;2022-07-23T05:53:34;15.70;99.90
22065;DHT22;11197;53.110;8.468;2022-07-23T05:56:04;15.80;99.90
22065;DHT22;11197;53.110;8.468;2022-07-23T05:58:31;15.80;99.90
22065;DHT22;11197;53.110;8.468;2022-07-23T06:00:57;15.90;99.90
22065;DHT22;11197;53.110;8.468;2022-07-23T06:03:23;16.00;99.90
22065;DHT22;11197;53.110;8.468;2022-07-23T06:05:50;16.10;99.90
22065;DHT22;11197;53.110;8.468;2022-07-23T06:08:16;16.20;99.90
22065;DHT22;11197;53.110;8.468;2022-07-23T06:10:43;16.40;99.90
22065;DHT22;11197;53.110;8.468;2022-07-23T06:13:09;16.50;99.90
22065;DHT22;11197;53.110;8.468;2022-07-23T06:15:35;16.70;99.90
22065;DHT22;11197;53.110;8.468;2022-07-23T06:18:01;16.80;99.90
22065;DHT22;11197;53.110;8.468;2022-07-23T06:20:27;16.90;99.90
22065;DHT22;11197;53.110;8.468;2022-07-23T06:22:53;17.00;99.90
22065;DHT22;11197;53.110;8.468;2022-07-23T06:25:19;17.30;99.90
22065;DHT22;11197;53.110;8.468;2022-07-23T06:27:46;17.30;99.90
22065;DHT22;11197;53.110;8.468;2022-07-23T06:30:13;17.50;99.90
22065;DHT22;11197;53.110;8.468;2022-07-23T06:32:39;17.60;99.90
22065;DHT22;11197;53.110;8.468;2022-07-23T06:35:05;17.70;99.90
22065;DHT22;11197;53.110;8.468;2022-07-23T06:37:31;17.70;99.90
22065;DHT22;11197;53.110;8.468;2022-07-23T06:39:57;17.70;99.90
22065;DHT22;11197;53.110;8.468;2022-07-23T06:42:23;17.70;99.90
22065;DHT22;11197;53.110;8.468;2022-07-23T06:44:56;17.70;99.90
22065;DHT22;11197;53.110;8.468;2022-07-23T06:47:22;17.70;99.90
22065;DHT22;11197;53.110;8.468;2022-07-23T06:49:48;17.70;99.90
22065;DHT22;11197;53.110;8.468;2022-07-23T06:52:14;17.60;99.90
22065;DHT22;11197;53.110;8.468;2022-07-23T06:54:40;17.60;99.90
22065;DHT22;11197;53.110;8.468;2022-07-23T06:57:06;17.50;99.90
22065;DHT22;11197;53.110;8.468;2022-07-23T06:59:32;17.50;99.90
22065;DHT22;11197;53.110;8.468;2022-07-23T07:01:58;17.50;99.90
22065;DHT22;11197;53.110;8.468;2022-07-23T07:04:25;17.40;99.90
22065;DHT22;11197;53.110;8.468;2022-07-23T07:06:50;17.40;99.90
22065;DHT22;11197;53.110;8.468;2022-07-23T07:09:16;17.40;99.90
22065;DHT22;11197;53.110;8.468;2022-07-23T07:11:43;17.50;99.90
22065;DHT22;11197;53.110;8.468;2022-07-23T07:14:09;17.50;99.90
22065;DHT22;11197;53.110;8.468;2022-07-23T07:16:35;17.50;99.90
22065;DHT22;11197;53.110;8.468;2022-07-23T07:19:00;17.50;99.90
22065;DHT22;11197;53.110;8.468;2022-07-23T07:21:26;17.60;99.90
22065;DHT22;11197;53.110;8.468;2022-07-23T07:23:52;17.50;99.90
22065;DHT22;11197;53.110;8.468;2022-07-23T07:26:18;17.50;99.90
22065;DHT22;11197;53.110;8.468;2022-07-23T07:28:44;17.60;99.90
22065;DHT22;11197;53.110;8.468;2022-07-23T07:31:10;17.60;99.90
22065;DHT22;11197;53.110;8.468;2022-07-23T07:33:35;17.60;99.90
22065;DHT22;11197;53.110;8.468;2022-07-23T07:36:01;17.50;99.90
22065;DHT22;11197;53.110;8.468;2022-07-23T07:38:28;17.50;99.90
22065;DHT22;11197;53.110;8.468;2022-07-23T07:40:54;17.50;99.90
22065;DHT22;11197;53.110;8.468;2022-07-23T07:43:20;17.60;99.90
22065;DHT22;11197;53.110;8.468;2022-07-23T07:45:46;17.60;99.90
22065;DHT22;11197;53.110;8.468;2022-07-23T07:48:12;17.60;99.90
22065;DHT22;11197;53.110;8.468;2022-07-23T07:50:37;17.60;99.90
22065;DHT22;11197;53.110;8.468;2022-07-23T07:53:03;17.60;99.90
22065;DHT22;11197;53.110;8.468;2022-07-23T07:55:29;17.60;99.90
22065;DHT22;11197;53.110;8.468;2022-07-23T07:57:56;17.60;99.90
22065;DHT22;11197;53.110;8.468;2022-07-23T08:00:22;17.60;99.90
22065;DHT22;11197;53.110;8.468;2022-07-23T08:02:50;17.50;99.90
22065;DHT22;11197;53.110;8.468;2022-07-23T08:05:23;17.50;99.90
22065;DHT22;11197;53.110;8.468;2022-07-23T08:07:49;17.70;99.90
22065;DHT22;11197;53.110;8.468;2022-07-23T08:10:15;17.90;99.90
22065;DHT22;11197;53.110;8.468;2022-07-23T08:12:44;18.10;99.90
22065;DHT22;11197;53.110;8.468;2022-07-23T08:15:11;18.10;99.90
22065;DHT22;11197;53.110;8.468;2022-07-23T08:17:38;18.10;99.90
22065;DHT22;11197;53.110;8.468;2022-07-23T08:20:05;18.00;99.90
22065;DHT22;11197;53.110;8.468;2022-07-23T08:22:54;17.90;99.90
22065;DHT22;11197;53.110;8.468;2022-07-23T08:25:23;17.90;99.90
22065;DHT22;11197;53.110;8.468;2022-07-23T08:27:50;17.90;99.90
22065;DHT22;11197;53.110;8.468;2022-07-23T08:30:16;17.90;99.90
22065;DHT22;11197;53.110;8.468;2022-07-23T08:35:28;17.90;99.90
22065;DHT22;11197;53.110;8.468;2022-07-23T08:37:54;17.80;99.90
22065;DHT22;11197;53.110;8.468;2022-07-23T08:40:21;17.80;99.90
22065;DHT22;11197;53.110;8.468;2022-07-23T08:42:48;17.70;99.90
22065;DHT22;11197;53.110;8.468;2022-07-23T08:45:19;17.80;99.90
22065;DHT22;11197;53.110;8.468;2022-07-23T08:47:51;17.80;99.90
22065;DHT22;11197;53.110;8.468;2022-07-23T08:50:18;17.80;99.90
22065;DHT22;11197;53.110;8.468;2022-07-23T08:52:45;17.90;99.90
22065;DHT22;11197;53.110;8.468;2022-07-23T08:55:12;18.00;99.90
22065;DHT22;11197;53.110;8.468;2022-07-23T08:57:38;18.00;99.90
22065;DHT22;11197;53.110;8.468;2022-07-23T09:00:05;18.00;99.90
22065;DHT22;11197;53.110;8.468;2022-07-23T09:02:39;18.10;99.90
22065;DHT22;11197;53.110;8.468;2022-07-23T09:05:07;18.20;99.90
22065;DHT22;11197;53.110;8.468;2022-07-23T09:07:36;18.20;99.90
22065;DHT22;11197;53.110;8.468;2022-07-23T09:10:11;18.20;99.90
22065;DHT22;11197;53.110;8.468;2022-07-23T09:12:38;18.30;99.90
22065;DHT22;11197;53.110;8.468;2022-07-23T09:15:07;18.40;99.90
22065;DHT22;11197;53.110;8.468;2022-07-23T09:17:38;18.40;99.90
22065;DHT22;11197;53.110;8.468;2022-07-23T09:20:12;18.40;99.90
22065;DHT22;11197;53.110;8.468;2022-07-23T09:22:46;18.50;99.90
22065;DHT22;11197;53.110;8.468;2022-07-23T09:25:18;18.60;99.90
22065;DHT22;11197;53.110;8.468;2022-07-23T09:27:54;18.70;99.90
22065;DHT22;11197;53.110;8.468;2022-07-23T09:30:25;18.80;99.90
22065;DHT22;11197;53.110;8.468;2022-07-23T09:33:10;18.80;99.90
22065;DHT22;11197;53.110;8.468;2022-07-23T09:35:54;18.80;99.90
22065;DHT22;11197;53.110;8.468;2022-07-23T09:38:23;18.90;99.90
22065;DHT22;11197;53.110;8.468;2022-07-23T09:41:11;18.80;99.90
22065;DHT22;11197;53.110;8.468;2022-07-23T09:43:39;18.80;99.90
22065;DHT22;11197;53.110;8.468;2022-07-23T09:46:22;18.80;99.90
22065;DHT22;11197;53.110;8.468;2022-07-23T09:48:52;18.90;99.90
22065;DHT22;11197;53.110;8.468;2022-07-23T09:51:19;19.00;99.90
22065;DHT22;11197;53.110;8.468;2022-07-23T09:53:55;19.00;99.90
22065;DHT22;11197;53.110;8.468;2022-07-23T09:56:21;19.10;99.90
22065;DHT22;11197;53.110;8.468;2022-07-23T09:58:50;19.10;99.90
22065;DHT22;11197;53.110;8.468;2022-07-23T10:01:29;19.10;99.90
22065;DHT22;11197;53.110;8.468;2022-07-23T10:03:58;19.10;99.90
22065;DHT22;11197;53.110;8.468;2022-07-23T10:06:52;19.10;99.90
22065;DHT22;11197;53.110;8.468;2022-07-23T10:09:41;19.20;99.90
22065;DHT22;11197;53.110;8.468;2022-07-23T10:12:31;19.20;99.90
22065;DHT22;11197;53.110;8.468;2022-07-23T10:15:18;19.20;99.90
22065;DHT22;11197;53.110;8.468;2022-07-23T10:17:45;19.20;99.90
22065;DHT22;11197;53.110;8.468;2022-07-23T10:20:14;19.20;99.90
22065;DHT22;11197;53.110;8.468;2022-07-23T10:26:27;19.30;99.90
22065;DHT22;11197;53.110;8.468;2022-07-23T10:29:02;19.40;99.90
22065;DHT22;11197;53.110;8.468;2022-07-23T10:37:21;19.50;99.90
22065;DHT22;11197;53.110;8.468;2022-07-23T10:40:23;19.50;99.90
22065;DHT22;11197;53.110;8.468;2022-07-23T10:42:52;19.60;99.90
22065;DHT22;11197;53.110;8.468;2022-07-23T10:47:55;19.70;99.90
22065;DHT22;11197;53.110;8.468;2022-07-23T10:55:40;19.70;99.90
22065;DHT22;11197;53.110;8.468;2022-07-23T10:58:07;19.70;99.90
22065;DHT22;11197;53.110;8.468;2022-07-23T11:00:35;19.70;99.90
22065;DHT22;11197;53.110;8.468;2022-07-23T11:03:04;19.70;99.90
22065;DHT22;11197;53.110;8.468;2022-07-23T11:05:44;19.80;99.90
22065;DHT22;11197;53.110;8.468;2022-07-23T11:08:16;19.80;99.90
22065;DHT22;11197;53.110;8.468;2022-07-23T11:10:47;19.80;99.90
22065;DHT22;11197;53.110;8.468;2022-07-23T11:13:35;19.90;99.90
22065;DHT22;11197;53.110;8.468;2022-07-23T11:24:06;20.10;99.90
22065;DHT22;11197;53.110;8.468;2022-07-23T11:34:31;20.40;99.90
22065;DHT22;11197;53.110;8.468;2022-07-23T11:36:59;20.40;99.90
22065;DHT22;11197;53.110;8.468;2022-07-23T11:39:27;20.40;99.90
22065;DHT22;11197;53.110;8.468;2022-07-23T11:41:53;20.50;99.90
22065;DHT22;11197;53.110;8.468;2022-07-23T11:44:30;20.50;99.90
22065;DHT22;11197;53.110;8.468;2022-07-23T11:47:02;20.40;99.80
22065;DHT22;11197;53.110;8.468;2022-07-23T11:49:29;20.40;99.90
22065;DHT22;11197;53.110;8.468;2022-07-23T11:52:13;20.40;99.20
22065;DHT22;11197;53.110;8.468;2022-07-23T11:54:57;20.30;98.90
22065;DHT22;11197;53.110;8.468;2022-07-23T11:57:26;20.30;99.50
22065;DHT22;11197;53.110;8.468;2022-07-23T11:59:56;20.20;99.40
22065;DHT22;11197;53.110;8.468;2022-07-23T12:02:22;20.30;99.80
22065;DHT22;11197;53.110;8.468;2022-07-23T12:04:50;20.30;99.80
22065;DHT22;11197;53.110;8.468;2022-07-23T12:07:46;20.40;99.40
22065;DHT22;11197;53.110;8.468;2022-07-23T12:12:57;20.40;99.60
22065;DHT22;11197;53.110;8.468;2022-07-23T12:15:34;20.40;99.50
22065;DHT22;11197;53.110;8.468;2022-07-23T12:18:04;20.30;99.00
22065;DHT22;11197;53.110;8.468;2022-07-23T12:20:36;20.30;98.80
22065;DHT22;11197;53.110;8.468;2022-07-23T12:23:04;20.30;99.10
22065;DHT22;11197;53.110;8.468;2022-07-23T12:25:33;20.40;99.10
22065;DHT22;11197;53.110;8.468;2022-07-23T12:33:10;20.60;97.00
22065;DHT22;11197;53.110;8.468;2022-07-23T12:35:42;20.60;96.80
22065;DHT22;11197;53.110;8.468;2022-07-23T12:38:16;20.60;96.70
22065;DHT22;11197;53.110;8.468;2022-07-23T12:40:44;20.50;96.40
22065;DHT22;11197;53.110;8.468;2022-07-23T12:43:20;20.50;97.00
22065;DHT22;11197;53.110;8.468;2022-07-23T12:45:48;20.50;97.10
22065;DHT22;11197;53.110;8.468;2022-07-23T12:48:26;20.50;97.50
22065;DHT22;11197;53.110;8.468;2022-07-23T12:56:08;20.70;96.50
22065;DHT22;11197;53.110;8.468;2022-07-23T13:01:42;20.90;96.40
22065;DHT22;11197;53.110;8.468;2022-07-23T13:04:14;21.00;96.50
22065;DHT22;11197;53.110;8.468;2022-07-23T13:06:41;21.10;96.80
22065;DHT22;11197;53.110;8.468;2022-07-23T13:09:09;21.20;96.00
22065;DHT22;11197;53.110;8.468;2022-07-23T13:11:35;21.30;95.50
22065;DHT22;11197;53.110;8.468;2022-07-23T13:14:02;21.30;95.60
22065;DHT22;11197;53.110;8.468;2022-07-23T13:16:29;21.40;95.20
22065;DHT22;11197;53.110;8.468;2022-07-23T13:18:56;21.50;94.90
22065;DHT22;11197;53.110;8.468;2022-07-23T13:21:23;21.40;94.90
22065;DHT22;11197;53.110;8.468;2022-07-23T13:23:48;21.40;94.90
22065;DHT22;11197;53.110;8.468;2022-07-23T13:26:14;21.30;95.00
22065;DHT22;11197;53.110;8.468;2022-07-23T13:28:40;21.30;95.10
22065;DHT22;11197;53.110;8.468;2022-07-23T13:31:06;21.30;95.10
22065;DHT22;11197;53.110;8.468;2022-07-23T13:33:33;21.30;95.20
22065;DHT22;11197;53.110;8.468;2022-07-23T13:35:59;21.30;95.40
22065;DHT22;11197;53.110;8.468;2022-07-23T13:38:25;21.30;95.10
22065;DHT22;11197;53.110;8.468;2022-07-23T13:40:52;21.30;95.50
22065;DHT22;11197;53.110;8.468;2022-07-23T13:43:20;21.30;95.60
22065;DHT22;11197;53.110;8.468;2022-07-23T13:45:46;21.30;95.70
22065;DHT22;11197;53.110;8.468;2022-07-23T13:48:13;21.30;95.60
22065;DHT22;11197;53.110;8.468;2022-07-23T13:50:40;21.20;95.80
22065;DHT22;11197;53.110;8.468;2022-07-23T13:53:09;21.20;96.30
22065;DHT22;11197;53.110;8.468;2022-07-23T13:55:37;21.20;96.40
22065;DHT22;11197;53.110;8.468;2022-07-23T13:58:04;21.20;96.00
22065;DHT22;11197;53.110;8.468;2022-07-23T14:00:30;21.30;96.00
22065;DHT22;11197;53.110;8.468;2022-07-23T14:02:57;21.30;96.00
22065;DHT22;11197;53.110;8.468;2022-07-23T14:05:23;21.30;95.70
22065;DHT22;11197;53.110;8.468;2022-07-23T14:07:53;21.20;95.70
22065;DHT22;11197;53.110;8.468;2022-07-23T14:10:21;21.20;95.70
22065;DHT22;11197;53.110;8.468;2022-07-23T14:12:47;21.30;95.80
22065;DHT22;11197;53.110;8.468;2022-07-23T14:15:14;21.20;95.60
22065;DHT22;11197;53.110;8.468;2022-07-23T14:17:42;21.20;95.70
22065;DHT22;11197;53.110;8.468;2022-07-23T14:20:09;21.20;95.60
22065;DHT22;11197;53.110;8.468;2022-07-23T14:22:36;21.20;95.80
22065;DHT22;11197;53.110;8.468;2022-07-23T14:25:03;21.30;94.90
22065;DHT22;11197;53.110;8.468;2022-07-23T14:27:29;21.30;94.50
22065;DHT22;11197;53.110;8.468;2022-07-23T14:29:56;21.40;95.10
22065;DHT22;11197;53.110;8.468;2022-07-23T14:32:22;21.40;94.60
22065;DHT22;11197;53.110;8.468;2022-07-23T14:34:49;21.40;95.00
22065;DHT22;11197;53.110;8.468;2022-07-23T14:37:15;21.40;95.20
22065;DHT22;11197;53.110;8.468;2022-07-23T14:39:42;21.40;95.30
22065;DHT22;11197;53.110;8.468;2022-07-23T14:42:09;21.40;95.10
22065;DHT22;11197;53.110;8.468;2022-07-23T14:44:36;21.50;95.50
22065;DHT22;11197;53.110;8.468;2022-07-23T14:47:03;21.60;95.00
22065;DHT22;11197;53.110;8.468;2022-07-23T14:49:33;21.60;94.40
22065;DHT22;11197;53.110;8.468;2022-07-23T14:52:00;21.70;94.10
22065;DHT22;11197;53.110;8.468;2022-07-23T14:54:27;21.80;94.20
22065;DHT22;11197;53.110;8.468;2022-07-23T14:56:53;21.80;94.20
22065;DHT22;11197;53.110;8.468;2022-07-23T14:59:19;21.90;93.60
22065;DHT22;11197;53.110;8.468;2022-07-23T15:01:45;22.00;93.90
22065;DHT22;11197;53.110;8.468;2022-07-23T15:04:11;22.00;93.90
22065;DHT22;11197;53.110;8.468;2022-07-23T15:06:37;22.00;93.80
22065;DHT22;11197;53.110;8.468;2022-07-23T15:09:04;22.00;93.80
22065;DHT22;11197;53.110;8.468;2022-07-23T15:11:30;22.00;93.80
22065;DHT22;11197;53.110;8.468;2022-07-23T15:14:00;22.00;93.50
22065;DHT22;11197;53.110;8.468;2022-07-23T15:16:27;22.00;93.60
22065;DHT22;11197;53.110;8.468;2022-07-23T15:18:53;22.10;93.60
22065;DHT22;11197;53.110;8.468;2022-07-23T15:21:20;22.10;93.80
22065;DHT22;11197;53.110;8.468;2022-07-23T15:23:46;22.10;93.20
22065;DHT22;11197;53.110;8.468;2022-07-23T15:26:12;22.20;94.00
22065;DHT22;11197;53.110;8.468;2022-07-23T15:28:41;22.20;93.80
22065;DHT22;11197;53.110;8.468;2022-07-23T15:31:07;22.30;94.10
22065;DHT22;11197;53.110;8.468;2022-07-23T15:33:33;22.30;93.90
22065;DHT22;11197;53.110;8.468;2022-07-23T15:36:03;22.30;94.10
22065;DHT22;11197;53.110;8.468;2022-07-23T15:38:29;22.40;93.90
22065;DHT22;11197;53.110;8.468;2022-07-23T15:40:55;22.50;93.80
22065;DHT22;11197;53.110;8.468;2022-07-23T15:43:23;22.50;93.10
22065;DHT22;11197;53.110;8.468;2022-07-23T15:45:50;22.50;93.30
22065;DHT22;11197;53.110;8.468;2022-07-23T15:48:18;22.60;92.90
22065;DHT22;11197;53.110;8.468;2022-07-23T15:50:46;22.60;93.10
22065;DHT22;11197;53.110;8.468;2022-07-23T15:53:12;22.60;92.40
22065;DHT22;11197;53.110;8.468;2022-07-23T15:55:39;22.70;92.50
22065;DHT22;11197;53.110;8.468;2022-07-23T15:58:05;22.70;92.00
22065;DHT22;11197;53.110;8.468;2022-07-23T16:00:32;22.70;92.30
22065;DHT22;11197;53.110;8.468;2022-07-23T16:02:58;22.70;91.40
22065;DHT22;11197;53.110;8.468;2022-07-23T16:05:24;22.60;91.80
22065;DHT22;11197;53.110;8.468;2022-07-23T16:07:56;22.60;92.00
22065;DHT22;11197;53.110;8.468;2022-07-23T16:10:22;22.60;91.80
22065;DHT22;11197;53.110;8.468;2022-07-23T16:12:48;22.60;92.00
22065;DHT22;11197;53.110;8.468;2022-07-23T16:15:14;22.60;91.60
22065;DHT22;11197;53.110;8.468;2022-07-23T16:17:40;22.60;91.90
22065;DHT22;11197;53.110;8.468;2022-07-23T16:20:06;22.60;92.00
22065;DHT22;11197;53.110;8.468;2022-07-23T16:22:33;22.60;92.20
22065;DHT22;11197;53.110;8.468;2022-07-23T16:24:59;22.50;92.60
22065;DHT22;11197;53.110;8.468;2022-07-23T16:27:25;22.60;92.80